sensor_id;sensor_type;location;lat;lon;timestamp;P1;durP1;ratioP1;P2;durP2;ratioP2
55222;SDS011;41090;48.632;12.428;2023-07-29T00:01:01;2.10;;;1.80;;
55222;SDS011;41090;48.632;12.428;2023-07-29T00:03:27;2.00;;;1.80;;
55222;SDS011;41090;48.632;12.428;2023-07-29T00:05:52;3.73;;;2.30;;
55222;SDS011;41090;48.632;12.428;2023-07-29T00:08:17;3.67;;;2.50;;
55222;SDS011;41090;48.632;12.428;2023-07-29T00:10:43;3.50;;;2.37;;
55222;SDS011;41090;48.632;12.428;2023-07-29T00:13:08;4.07;;;2.70;;
55222;SDS011;41090;48.632;12.428;2023-07-29T00:15:34;3.23;;;2.50;;
55222;SDS011;41090;48.632;12.428;2023-07-29T00:17:59;2.50;;;2.30;;
55222;SDS011;41090;48.632;12.428;2023-07-29T00:20:25;4.03;;;3.30;;
55222;SDS011;41090;48.632;12.428;2023-07-29T00:22:50;4.77;;;3.60;;
55222;SDS011;41090;48.632;12.428;2023-07-29T00:25:18;3.90;;;3.40;;
55222;SDS011;41090;48.632;12.428;2023-07-29T00:27:43;4.20;;;3.80;;
55222;SDS011;41090;48.632;12.428;2023-07-29T00:30:11;4.43;;;4.03;;
55222;SDS011;41090;48.632;12.428;2023-07-29T00:32:36;5.30;;;4.80;;
55222;SDS011;41090;48.632;12.428;2023-07-29T00:35:02;5.30;;;4.53;;
55222;SDS011;41090;48.632;12.428;2023-07-29T00:37:27;5.00;;;4.50;;
55222;SDS011;41090;48.632;12.428;2023-07-29T00:39:53;4.50;;;4.10;;
55222;SDS011;41090;48.632;12.428;2023-07-29T00:42:18;5.27;;;4.77;;
55222;SDS011;41090;48.632;12.428;2023-07-29T00:44:43;5.30;;;4.60;;
55222;SDS011;41090;48.632;12.428;2023-07-29T00:47:09;6.80;;;5.37;;
55222;SDS011;41090;48.632;12.428;2023-07-29T00:49:35;6.27;;;4.90;;
55222;SDS011;41090;48.632;12.428;2023-07-29T00:52:00;5.27;;;4.77;;
55222;SDS011;41090;48.632;12.428;2023-07-29T00:54:25;5.20;;;4.77;;
55222;SDS011;41090;48.632;12.428;2023-07-29T00:56:51;6.40;;;5.07;;
55222;SDS011;41090;48.632;12.428;2023-07-29T00:59:16;5.13;;;4.57;;
55222;SDS011;41090;48.632;12.428;2023-07-29T01:01:41;5.13;;;4.63;;
55222;SDS011;41090;48.632;12.428;2023-07-29T01:04:07;6.20;;;4.87;;
55222;SDS011;41090;48.632;12.428;2023-07-29T01:09:02;5.37;;;4.33;;
55222;SDS011;41090;48.632;12.428;2023-07-29T01:16:46;4.73;;;4.23;;
55222;SDS011;41090;48.632;12.428;2023-07-29T01:19:21;4.63;;;4.10;;
55222;SDS011;41090;48.632;12.428;2023-07-29T01:21:52;4.93;;;4.43;;
55222;SDS011;41090;48.632;12.428;2023-07-29T01:24:18;4.50;;;4.10;;
55222;SDS011;41090;48.632;12.428;2023-07-29T01:26:44;4.60;;;4.20;;
55222;SDS011;41090;48.632;12.428;2023-07-29T01:29:09;5.00;;;4.50;;
55222;SDS011;41090;48.632;12.428;2023-07-29T01:31:35;5.17;;;4.57;;
55222;SDS011;41090;48.632;12.428;2023-07-29T01:34:09;5.33;;;4.40;;
55222;SDS011;41090;48.632;12.428;2023-07-29T01:36:35;4.70;;;4.30;;
55222;SDS011;41090;48.632;12.428;2023-07-29T01:39:04;4.70;;;4.30;;
55222;SDS011;41090;48.632;12.428;2023-07-29T01:41:30;4.90;;;4.10;;
55222;SDS011;41090;48.632;12.428;2023-07-29T01:43:56;4.93;;;4.20;;
55222;SDS011;41090;48.632;12.428;2023-07-29T01:46:21;4.83;;;4.30;;
55222;SDS011;41090;48.632;12.428;2023-07-29T01:48:47;4.67;;;4.23;;
55222;SDS011;41090;48.632;12.428;2023-07-29T01:51:12;4.70;;;4.30;;
55222;SDS011;41090;48.632;12.428;2023-07-29T01:53:37;5.17;;;3.50;;
55222;SDS011;41090;48.632;12.428;2023-07-29T01:56:03;4.70;;;4.10;;
55222;SDS011;41090;48.632;12.428;2023-07-29T01:58:28;4.07;;;3.67;;
55222;SDS011;41090;48.632;12.428;2023-07-29T02:00:53;4.37;;;3.97;;
55222;SDS011;41090;48.632;12.428;2023-07-29T02:03:19;4.00;;;3.60;;
55222;SDS011;41090;48.632;12.428;2023-07-29T02:05:44;5.17;;;4.00;;
55222;SDS011;41090;48.632;12.428;2023-07-29T02:08:10;4.40;;;4.00;;
55222;SDS011;41090;48.632;12.428;2023-07-29T02:10:35;4.33;;;3.93;;
55222;SDS011;41090;48.632;12.428;2023-07-29T02:13:01;4.40;;;3.87;;
55222;SDS011;41090;48.632;12.428;2023-07-29T02:15:26;4.17;;;3.77;;
55222;SDS011;41090;48.632;12.428;2023-07-29T02:17:51;4.03;;;3.67;;
55222;SDS011;41090;48.632;12.428;2023-07-29T02:20:17;3.93;;;3.60;;
55222;SDS011;41090;48.632;12.428;2023-07-29T02:22:42;3.90;;;3.50;;
55222;SDS011;41090;48.632;12.428;2023-07-29T02:25:07;3.97;;;3.63;;
55222;SDS011;41090;48.632;12.428;2023-07-29T02:27:33;4.40;;;4.00;;
55222;SDS011;41090;48.632;12.428;2023-07-29T02:29:58;4.47;;;4.07;;
55222;SDS011;41090;48.632;12.428;2023-07-29T02:32:23;4.07;;;3.57;;
55222;SDS011;41090;48.632;12.428;2023-07-29T02:34:49;3.93;;;3.37;;
55222;SDS011;41090;48.632;12.428;2023-07-29T02:37:14;4.37;;;3.77;;
55222;SDS011;41090;48.632;12.428;2023-07-29T02:39:39;4.13;;;3.73;;
55222;SDS011;41090;48.632;12.428;2023-07-29T02:42:05;4.23;;;3.80;;
55222;SDS011;41090;48.632;12.428;2023-07-29T02:44:30;4.07;;;3.77;;
55222;SDS011;41090;48.632;12.428;2023-07-29T02:46:55;3.20;;;3.00;;
55222;SDS011;41090;48.632;12.428;2023-07-29T02:49:21;6.50;;;3.70;;
55222;SDS011;41090;48.632;12.428;2023-07-29T02:51:46;4.40;;;4.00;;
55222;SDS011;41090;48.632;12.428;2023-07-29T02:54:12;4.20;;;3.80;;
55222;SDS011;41090;48.632;12.428;2023-07-29T02:56:37;3.40;;;3.10;;
55222;SDS011;41090;48.632;12.428;2023-07-29T02:59:02;3.97;;;3.63;;
55222;SDS011;41090;48.632;12.428;2023-07-29T03:01:27;3.70;;;3.40;;
55222;SDS011;41090;48.632;12.428;2023-07-29T03:03:53;4.27;;;3.90;;
55222;SDS011;41090;48.632;12.428;2023-07-29T03:06:18;3.97;;;3.67;;
55222;SDS011;41090;48.632;12.428;2023-07-29T03:08:44;4.00;;;3.70;;
55222;SDS011;41090;48.632;12.428;2023-07-29T03:11:10;3.90;;;3.60;;
55222;SDS011;41090;48.632;12.428;2023-07-29T03:13:36;5.23;;;3.80;;
55222;SDS011;41090;48.632;12.428;2023-07-29T03:16:08;4.73;;;3.83;;
55222;SDS011;41090;48.632;12.428;2023-07-29T03:18:34;4.20;;;3.80;;
55222;SDS011;41090;48.632;12.428;2023-07-29T03:20:59;3.47;;;3.17;;
55222;SDS011;41090;48.632;12.428;2023-07-29T03:23:24;3.90;;;3.50;;
55222;SDS011;41090;48.632;12.428;2023-07-29T03:25:50;4.30;;;3.90;;
55222;SDS011;41090;48.632;12.428;2023-07-29T03:28:21;4.10;;;3.70;;
55222;SDS011;41090;48.632;12.428;2023-07-29T03:30:46;4.80;;;4.27;;
55222;SDS011;41090;48.632;12.428;2023-07-29T03:33:12;4.10;;;3.70;;
55222;SDS011;41090;48.632;12.428;2023-07-29T03:35:37;4.37;;;3.70;;
55222;SDS011;41090;48.632;12.428;2023-07-29T03:38:02;4.50;;;3.90;;
55222;SDS011;41090;48.632;12.428;2023-07-29T03:40:27;5.83;;;4.30;;
55222;SDS011;41090;48.632;12.428;2023-07-29T03:42:53;4.93;;;3.90;;
55222;SDS011;41090;48.632;12.428;2023-07-29T03:45:18;6.17;;;4.13;;
55222;SDS011;41090;48.632;12.428;2023-07-29T03:47:43;4.77;;;3.70;;
55222;SDS011;41090;48.632;12.428;2023-07-29T03:50:09;4.67;;;3.43;;
55222;SDS011;41090;48.632;12.428;2023-07-29T03:52:34;4.03;;;3.70;;
55222;SDS011;41090;48.632;12.428;2023-07-29T03:54:59;4.70;;;3.93;;
55222;SDS011;41090;48.632;12.428;2023-07-29T03:57:24;4.83;;;3.90;;
55222;SDS011;41090;48.632;12.428;2023-07-29T03:59:50;3.67;;;3.37;;
55222;SDS011;41090;48.632;12.428;2023-07-29T04:02:15;3.97;;;3.40;;
55222;SDS011;41090;48.632;12.428;2023-07-29T04:04:40;3.43;;;3.13;;
55222;SDS011;41090;48.632;12.428;2023-07-29T04:07:07;4.20;;;3.77;;
55222;SDS011;41090;48.632;12.428;2023-07-29T04:09:33;4.77;;;4.27;;
55222;SDS011;41090;48.632;12.428;2023-07-29T04:11:58;5.30;;;4.10;;
55222;SDS011;41090;48.632;12.428;2023-07-29T04:14:23;4.60;;;4.20;;
55222;SDS011;41090;48.632;12.428;2023-07-29T04:16:48;5.27;;;4.47;;
55222;SDS011;41090;48.632;12.428;2023-07-29T04:19:14;5.00;;;4.47;;
55222;SDS011;41090;48.632;12.428;2023-07-29T04:21:39;3.90;;;3.60;;
55222;SDS011;41090;48.632;12.428;2023-07-29T04:24:04;7.53;;;4.67;;
55222;SDS011;41090;48.632;12.428;2023-07-29T04:26:30;5.53;;;4.73;;
55222;SDS011;41090;48.632;12.428;2023-07-29T04:28:55;4.77;;;4.37;;
55222;SDS011;41090;48.632;12.428;2023-07-29T04:31:20;4.13;;;3.70;;
55222;SDS011;41090;48.632;12.428;2023-07-29T04:33:46;4.63;;;4.23;;
55222;SDS011;41090;48.632;12.428;2023-07-29T04:36:11;5.10;;;4.63;;
55222;SDS011;41090;48.632;12.428;2023-07-29T04:38:36;6.70;;;4.63;;
55222;SDS011;41090;48.632;12.428;2023-07-29T04:41:02;3.60;;;3.30;;
55222;SDS011;41090;48.632;12.428;2023-07-29T04:43:27;3.93;;;3.60;;
55222;SDS011;41090;48.632;12.428;2023-07-29T04:45:53;4.57;;;4.00;;
55222;SDS011;41090;48.632;12.428;2023-07-29T04:48:18;4.60;;;4.20;;
55222;SDS011;41090;48.632;12.428;2023-07-29T04:50:44;4.73;;;3.87;;
55222;SDS011;41090;48.632;12.428;2023-07-29T04:53:09;6.70;;;4.40;;
55222;SDS011;41090;48.632;12.428;2023-07-29T04:55:34;8.17;;;4.23;;
55222;SDS011;41090;48.632;12.428;2023-07-29T04:57:59;5.60;;;4.23;;
55222;SDS011;41090;48.632;12.428;2023-07-29T05:00:25;4.47;;;4.00;;
55222;SDS011;41090;48.632;12.428;2023-07-29T05:02:50;4.73;;;4.33;;
55222;SDS011;41090;48.632;12.428;2023-07-29T05:05:16;4.80;;;4.23;;
55222;SDS011;41090;48.632;12.428;2023-07-29T05:07:41;4.33;;;3.93;;
55222;SDS011;41090;48.632;12.428;2023-07-29T05:10:07;4.27;;;3.40;;
55222;SDS011;41090;48.632;12.428;2023-07-29T05:12:32;5.00;;;4.50;;
55222;SDS011;41090;48.632;12.428;2023-07-29T05:14:58;3.90;;;3.60;;
55222;SDS011;41090;48.632;12.428;2023-07-29T05:17:23;4.97;;;4.47;;
55222;SDS011;41090;48.632;12.428;2023-07-29T05:19:48;5.37;;;4.50;;
55222;SDS011;41090;48.632;12.428;2023-07-29T05:22:14;6.80;;;4.43;;
55222;SDS011;41090;48.632;12.428;2023-07-29T05:24:39;4.27;;;3.60;;
55222;SDS011;41090;48.632;12.428;2023-07-29T05:27:04;3.90;;;3.60;;
55222;SDS011;41090;48.632;12.428;2023-07-29T05:29:30;4.30;;;3.90;;
55222;SDS011;41090;48.632;12.428;2023-07-29T05:31:55;5.20;;;4.00;;
55222;SDS011;41090;48.632;12.428;2023-07-29T05:34:22;4.23;;;3.83;;
55222;SDS011;41090;48.632;12.428;2023-07-29T05:36:47;4.47;;;4.00;;
55222;SDS011;41090;48.632;12.428;2023-07-29T05:39:12;4.20;;;3.90;;
55222;SDS011;41090;48.632;12.428;2023-07-29T05:41:37;4.53;;;4.13;;
55222;SDS011;41090;48.632;12.428;2023-07-29T05:44:03;5.17;;;4.67;;
55222;SDS011;41090;48.632;12.428;2023-07-29T05:46:28;4.27;;;3.73;;
55222;SDS011;41090;48.632;12.428;2023-07-29T05:48:53;4.23;;;3.83;;
55222;SDS011;41090;48.632;12.428;2023-07-29T05:51:19;5.10;;;4.60;;
55222;SDS011;41090;48.632;12.428;2023-07-29T05:53:44;4.43;;;4.03;;
55222;SDS011;41090;48.632;12.428;2023-07-29T05:56:09;5.47;;;4.80;;
55222;SDS011;41090;48.632;12.428;2023-07-29T05:58:35;5.63;;;5.00;;
55222;SDS011;41090;48.632;12.428;2023-07-29T06:01:00;4.43;;;4.00;;
55222;SDS011;41090;48.632;12.428;2023-07-29T06:03:26;4.93;;;4.40;;
55222;SDS011;41090;48.632;12.428;2023-07-29T06:05:51;6.73;;;4.10;;
55222;SDS011;41090;48.632;12.428;2023-07-29T06:08:17;6.07;;;4.33;;
55222;SDS011;41090;48.632;12.428;2023-07-29T06:10:42;4.37;;;3.70;;
55222;SDS011;41090;48.632;12.428;2023-07-29T06:13:07;4.47;;;3.90;;
55222;SDS011;41090;48.632;12.428;2023-07-29T06:15:33;3.60;;;3.30;;
55222;SDS011;41090;48.632;12.428;2023-07-29T06:17:58;4.77;;;3.87;;
55222;SDS011;41090;48.632;12.428;2023-07-29T06:20:23;3.80;;;3.20;;
55222;SDS011;41090;48.632;12.428;2023-07-29T06:22:49;3.50;;;3.20;;
55222;SDS011;41090;48.632;12.428;2023-07-29T06:25:14;3.43;;;2.83;;
55222;SDS011;41090;48.632;12.428;2023-07-29T06:27:39;3.85;;;2.80;;
55222;SDS011;41090;48.632;12.428;2023-07-29T06:30:05;5.63;;;3.30;;
55222;SDS011;41090;48.632;12.428;2023-07-29T06:32:30;4.65;;;3.05;;
55222;SDS011;41090;48.632;12.428;2023-07-29T06:34:56;4.25;;;2.80;;
55222;SDS011;41090;48.632;12.428;2023-07-29T06:37:21;3.20;;;2.90;;
55222;SDS011;41090;48.632;12.428;2023-07-29T06:39:47;2.72;;;2.53;;
55222;SDS011;41090;48.632;12.428;2023-07-29T06:42:12;3.72;;;2.50;;
55222;SDS011;41090;48.632;12.428;2023-07-29T06:44:38;3.05;;;2.75;;
55222;SDS011;41090;48.632;12.428;2023-07-29T06:47:03;2.70;;;2.50;;
55222;SDS011;41090;48.632;12.428;2023-07-29T06:49:28;4.28;;;2.65;;
55222;SDS011;41090;48.632;12.428;2023-07-29T06:51:54;3.25;;;2.90;;
55222;SDS011;41090;48.632;12.428;2023-07-29T06:54:19;2.67;;;2.47;;
55222;SDS011;41090;48.632;12.428;2023-07-29T06:56:48;2.88;;;2.60;;
55222;SDS011;41090;48.632;12.428;2023-07-29T06:59:14;3.08;;;2.70;;
55222;SDS011;41090;48.632;12.428;2023-07-29T07:01:39;2.67;;;2.47;;
55222;SDS011;41090;48.632;12.428;2023-07-29T07:04:04;3.00;;;2.78;;
55222;SDS011;41090;48.632;12.428;2023-07-29T07:06:29;4.57;;;2.80;;
55222;SDS011;41090;48.632;12.428;2023-07-29T07:08:55;2.90;;;2.40;;
55222;SDS011;41090;48.632;12.428;2023-07-29T07:11:20;2.55;;;2.33;;
55222;SDS011;41090;48.632;12.428;2023-07-29T07:13:45;2.75;;;2.50;;
55222;SDS011;41090;48.632;12.428;2023-07-29T07:16:10;3.35;;;2.30;;
55222;SDS011;41090;48.632;12.428;2023-07-29T07:18:36;2.78;;;2.58;;
55222;SDS011;41090;48.632;12.428;2023-07-29T07:21:01;2.70;;;2.22;;
55222;SDS011;41090;48.632;12.428;2023-07-29T07:23:26;3.00;;;2.60;;
55222;SDS011;41090;48.632;12.428;2023-07-29T07:25:51;4.22;;;2.67;;
55222;SDS011;41090;48.632;12.428;2023-07-29T07:28:17;2.70;;;2.50;;
55222;SDS011;41090;48.632;12.428;2023-07-29T07:30:42;3.08;;;2.55;;
55222;SDS011;41090;48.632;12.428;2023-07-29T07:33:07;2.72;;;2.53;;
55222;SDS011;41090;48.632;12.428;2023-07-29T07:35:32;2.72;;;2.53;;
55222;SDS011;41090;48.632;12.428;2023-07-29T07:37:58;2.90;;;2.60;;
55222;SDS011;41090;48.632;12.428;2023-07-29T07:40:24;2.70;;;2.50;;
55222;SDS011;41090;48.632;12.428;2023-07-29T07:42:49;4.78;;;2.88;;
55222;SDS011;41090;48.632;12.428;2023-07-29T07:45:15;4.07;;;2.40;;
55222;SDS011;41090;48.632;12.428;2023-07-29T07:47:40;2.60;;;2.40;;
55222;SDS011;41090;48.632;12.428;2023-07-29T07:50:05;4.18;;;2.50;;
55222;SDS011;41090;48.632;12.428;2023-07-29T07:52:31;4.90;;;2.67;;
55222;SDS011;41090;48.632;12.428;2023-07-29T07:54:56;2.63;;;2.35;;
55222;SDS011;41090;48.632;12.428;2023-07-29T07:57:21;2.90;;;2.55;;
55222;SDS011;41090;48.632;12.428;2023-07-29T07:59:47;2.90;;;2.60;;
55222;SDS011;41090;48.632;12.428;2023-07-29T08:02:12;2.90;;;2.60;;
55222;SDS011;41090;48.632;12.428;2023-07-29T08:04:38;3.90;;;2.65;;
55222;SDS011;41090;48.632;12.428;2023-07-29T08:07:03;3.85;;;2.50;;
55222;SDS011;41090;48.632;12.428;2023-07-29T08:09:28;4.30;;;2.50;;
55222;SDS011;41090;48.632;12.428;2023-07-29T08:11:53;2.58;;;2.38;;
55222;SDS011;41090;48.632;12.428;2023-07-29T08:14:19;2.70;;;2.50;;
55222;SDS011;41090;48.632;12.428;2023-07-29T08:16:44;3.20;;;2.30;;
55222;SDS011;41090;48.632;12.428;2023-07-29T08:19:09;4.30;;;2.80;;
55222;SDS011;41090;48.632;12.428;2023-07-29T08:21:35;4.85;;;2.42;;
55222;SDS011;41090;48.632;12.428;2023-07-29T08:24:00;2.45;;;2.25;;
55222;SDS011;41090;48.632;12.428;2023-07-29T08:26:25;3.20;;;2.90;;
55222;SDS011;41090;48.632;12.428;2023-07-29T08:28:51;5.75;;;2.78;;
55222;SDS011;41090;48.632;12.428;2023-07-29T08:31:16;4.68;;;2.90;;
55222;SDS011;41090;48.632;12.428;2023-07-29T08:33:41;3.00;;;2.70;;
55222;SDS011;41090;48.632;12.428;2023-07-29T08:36:06;2.90;;;2.60;;
55222;SDS011;41090;48.632;12.428;2023-07-29T08:38:32;2.90;;;2.63;;
55222;SDS011;41090;48.632;12.428;2023-07-29T08:43:52;2.55;;;2.33;;
55222;SDS011;41090;48.632;12.428;2023-07-29T08:46:18;3.10;;;2.10;;
55222;SDS011;41090;48.632;12.428;2023-07-29T08:48:44;3.50;;;2.38;;
55222;SDS011;41090;48.632;12.428;2023-07-29T08:51:09;4.95;;;2.60;;
55222;SDS011;41090;48.632;12.428;2023-07-29T08:53:35;3.42;;;2.65;;
55222;SDS011;41090;48.632;12.428;2023-07-29T08:56:00;2.42;;;2.22;;
55222;SDS011;41090;48.632;12.428;2023-07-29T08:58:26;2.58;;;2.35;;
55222;SDS011;41090;48.632;12.428;2023-07-29T09:00:51;2.80;;;2.50;;
55222;SDS011;41090;48.632;12.428;2023-07-29T09:03:17;3.10;;;2.20;;
55222;SDS011;41090;48.632;12.428;2023-07-29T09:05:42;2.63;;;2.42;;
55222;SDS011;41090;48.632;12.428;2023-07-29T09:08:08;3.13;;;2.20;;
55222;SDS011;41090;48.632;12.428;2023-07-29T09:10:36;2.35;;;2.15;;
55222;SDS011;41090;48.632;12.428;2023-07-29T09:13:05;3.85;;;2.38;;
55222;SDS011;41090;48.632;12.428;2023-07-29T09:15:31;3.20;;;2.58;;
55222;SDS011;41090;48.632;12.428;2023-07-29T09:17:57;2.50;;;2.22;;
55222;SDS011;41090;48.632;12.428;2023-07-29T09:20:26;3.80;;;2.60;;
55222;SDS011;41090;48.632;12.428;2023-07-29T09:22:52;3.10;;;2.45;;
55222;SDS011;41090;48.632;12.428;2023-07-29T09:25:22;2.42;;;2.22;;
55222;SDS011;41090;48.632;12.428;2023-07-29T09:27:47;2.58;;;2.35;;
55222;SDS011;41090;48.632;12.428;2023-07-29T09:30:16;3.35;;;2.47;;
55222;SDS011;41090;48.632;12.428;2023-07-29T09:32:41;3.03;;;2.22;;
55222;SDS011;41090;48.632;12.428;2023-07-29T09:35:09;3.17;;;2.53;;
55222;SDS011;41090;48.632;12.428;2023-07-29T09:37:35;2.63;;;2.22;;
55222;SDS011;41090;48.632;12.428;2023-07-29T09:40:00;2.60;;;2.40;;
55222;SDS011;41090;48.632;12.428;2023-07-29T09:42:26;3.55;;;2.63;;
55222;SDS011;41090;48.632;12.428;2023-07-29T09:44:51;2.72;;;2.08;;
55222;SDS011;41090;48.632;12.428;2023-07-29T09:47:23;2.75;;;2.38;;
55222;SDS011;41090;48.632;12.428;2023-07-29T09:49:49;3.85;;;2.35;;
55222;SDS011;41090;48.632;12.428;2023-07-29T09:52:15;4.45;;;2.70;;
55222;SDS011;41090;48.632;12.428;2023-07-29T09:54:42;3.00;;;2.42;;
55222;SDS011;41090;48.632;12.428;2023-07-29T09:57:07;2.40;;;2.20;;
55222;SDS011;41090;48.632;12.428;2023-07-29T09:59:36;2.45;;;2.10;;
55222;SDS011;41090;48.632;12.428;2023-07-29T10:02:01;2.45;;;2.25;;
55222;SDS011;41090;48.632;12.428;2023-07-29T10:04:26;3.05;;;2.53;;
55222;SDS011;41090;48.632;12.428;2023-07-29T10:06:52;3.65;;;2.50;;
55222;SDS011;41090;48.632;12.428;2023-07-29T10:09:17;2.58;;;2.38;;
55222;SDS011;41090;48.632;12.428;2023-07-29T10:11:44;2.65;;;2.40;;
55222;SDS011;41090;48.632;12.428;2023-07-29T10:14:09;2.80;;;2.50;;
55222;SDS011;41090;48.632;12.428;2023-07-29T10:16:35;2.50;;;2.30;;
55222;SDS011;41090;48.632;12.428;2023-07-29T10:19:01;2.20;;;2.10;;
55222;SDS011;41090;48.632;12.428;2023-07-29T10:21:26;2.90;;;2.70;;
55222;SDS011;41090;48.632;12.428;2023-07-29T10:23:53;2.60;;;2.40;;
55222;SDS011;41090;48.632;12.428;2023-07-29T10:26:19;4.43;;;2.63;;
55222;SDS011;41090;48.632;12.428;2023-07-29T10:28:46;2.10;;;2.00;;
55222;SDS011;41090;48.632;12.428;2023-07-29T10:31:11;2.80;;;2.22;;
55222;SDS011;41090;48.632;12.428;2023-07-29T10:33:37;2.10;;;2.00;;
55222;SDS011;41090;48.632;12.428;2023-07-29T10:36:03;2.60;;;2.40;;
55222;SDS011;41090;48.632;12.428;2023-07-29T10:38:29;2.42;;;2.22;;
55222;SDS011;41090;48.632;12.428;2023-07-29T10:40:55;2.88;;;2.22;;
55222;SDS011;41090;48.632;12.428;2023-07-29T10:43:25;2.80;;;2.40;;
55222;SDS011;41090;48.632;12.428;2023-07-29T10:45:50;2.67;;;2.47;;
55222;SDS011;41090;48.632;12.428;2023-07-29T10:53:44;3.28;;;2.75;;
55222;SDS011;41090;48.632;12.428;2023-07-29T10:56:09;2.72;;;2.40;;
55222;SDS011;41090;48.632;12.428;2023-07-29T10:58:34;3.17;;;2.87;;
55222;SDS011;41090;48.632;12.428;2023-07-29T11:00:59;2.80;;;2.55;;
55222;SDS011;41090;48.632;12.428;2023-07-29T11:03:24;3.25;;;2.95;;
55222;SDS011;41090;48.632;12.428;2023-07-29T11:05:53;3.33;;;2.97;;
55222;SDS011;41090;48.632;12.428;2023-07-29T11:08:23;2.95;;;2.70;;
55222;SDS011;41090;48.632;12.428;2023-07-29T11:11:05;3.95;;;2.80;;
55222;SDS011;41090;48.632;12.428;2023-07-29T11:13:30;2.97;;;2.78;;
55222;SDS011;41090;48.632;12.428;2023-07-29T11:15:56;3.15;;;2.85;;
55222;SDS011;41090;48.632;12.428;2023-07-29T11:18:25;3.15;;;2.85;;
55222;SDS011;41090;48.632;12.428;2023-07-29T11:20:51;3.35;;;2.95;;
55222;SDS011;41090;48.632;12.428;2023-07-29T11:23:18;3.17;;;2.90;;
55222;SDS011;41090;48.632;12.428;2023-07-29T11:25:44;3.78;;;3.20;;
55222;SDS011;41090;48.632;12.428;2023-07-29T11:28:10;3.90;;;3.03;;
55222;SDS011;41090;48.632;12.428;2023-07-29T11:30:36;3.33;;;2.97;;
55222;SDS011;41090;48.632;12.428;2023-07-29T11:33:03;4.10;;;3.40;;
55222;SDS011;41090;48.632;12.428;2023-07-29T11:35:28;4.53;;;3.28;;
55222;SDS011;41090;48.632;12.428;2023-07-29T11:37:54;3.53;;;3.22;;
55222;SDS011;41090;48.632;12.428;2023-07-29T11:40:21;3.40;;;3.13;;
55222;SDS011;41090;48.632;12.428;2023-07-29T11:42:47;4.80;;;3.00;;
55222;SDS011;41090;48.632;12.428;2023-07-29T11:45:14;4.25;;;3.33;;
55222;SDS011;41090;48.632;12.428;2023-07-29T11:47:39;4.13;;;2.97;;
55222;SDS011;41090;48.632;12.428;2023-07-29T11:50:05;4.80;;;2.95;;
55222;SDS011;41090;48.632;12.428;2023-07-29T11:52:31;4.43;;;2.58;;
55222;SDS011;41090;48.632;12.428;2023-07-29T11:54:57;3.85;;;3.42;;
55222;SDS011;41090;48.632;12.428;2023-07-29T11:57:23;3.40;;;3.10;;
55222;SDS011;41090;48.632;12.428;2023-07-29T11:59:48;3.65;;;3.35;;
55222;SDS011;41090;48.632;12.428;2023-07-29T12:02:15;3.65;;;3.35;;
55222;SDS011;41090;48.632;12.428;2023-07-29T12:04:40;3.78;;;3.35;;
55222;SDS011;41090;48.632;12.428;2023-07-29T12:07:06;6.07;;;3.50;;
55222;SDS011;41090;48.632;12.428;2023-07-29T12:09:31;4.45;;;3.60;;
55222;SDS011;41090;48.632;12.428;2023-07-29T12:11:58;3.80;;;3.50;;
55222;SDS011;41090;48.632;12.428;2023-07-29T12:14:27;4.78;;;3.55;;
55222;SDS011;41090;48.632;12.428;2023-07-29T12:16:53;4.28;;;3.88;;
55222;SDS011;41090;48.632;12.428;2023-07-29T12:19:18;4.28;;;3.88;;
55222;SDS011;41090;48.632;12.428;2023-07-29T12:21:44;4.25;;;3.58;;
55222;SDS011;41090;48.632;12.428;2023-07-29T12:24:09;3.25;;;3.05;;
55222;SDS011;41090;48.632;12.428;2023-07-29T12:26:36;3.88;;;3.58;;
55222;SDS011;41090;48.632;12.428;2023-07-29T12:29:11;3.67;;;3.20;;
55222;SDS011;41090;48.632;12.428;2023-07-29T12:31:37;3.45;;;3.13;;
55222;SDS011;41090;48.632;12.428;2023-07-29T12:34:02;3.17;;;2.88;;
55222;SDS011;41090;48.632;12.428;2023-07-29T12:36:44;3.55;;;2.85;;
55222;SDS011;41090;48.632;12.428;2023-07-29T12:39:19;4.47;;;3.28;;
55222;SDS011;41090;48.632;12.428;2023-07-29T12:41:44;3.53;;;2.88;;
55222;SDS011;41090;48.632;12.428;2023-07-29T12:44:10;3.05;;;2.85;;
55222;SDS011;41090;48.632;12.428;2023-07-29T12:46:35;3.40;;;3.10;;
55222;SDS011;41090;48.632;12.428;2023-07-29T12:49:00;3.20;;;2.90;;
55222;SDS011;41090;48.632;12.428;2023-07-29T12:51:25;3.17;;;2.88;;
55222;SDS011;41090;48.632;12.428;2023-07-29T12:53:50;3.13;;;2.83;;
55222;SDS011;41090;48.632;12.428;2023-07-29T12:56:16;2.77;;;2.53;;
55222;SDS011;41090;48.632;12.428;2023-07-29T12:58:41;3.10;;;2.70;;
55222;SDS011;41090;48.632;12.428;2023-07-29T13:01:06;2.95;;;2.72;;
55222;SDS011;41090;48.632;12.428;2023-07-29T13:03:31;3.00;;;2.70;;
55222;SDS011;41090;48.632;12.428;2023-07-29T13:05:57;2.83;;;2.50;;
55222;SDS011;41090;48.632;12.428;2023-07-29T13:08:22;2.85;;;2.63;;
55222;SDS011;41090;48.632;12.428;2023-07-29T13:10:48;2.80;;;2.58;;
55222;SDS011;41090;48.632;12.428;2023-07-29T13:13:13;2.58;;;2.30;;
55222;SDS011;41090;48.632;12.428;2023-07-29T13:15:39;3.10;;;2.90;;
55222;SDS011;41090;48.632;12.428;2023-07-29T13:18:04;2.90;;;2.50;;
55222;SDS011;41090;48.632;12.428;2023-07-29T13:20:29;2.97;;;2.42;;
55222;SDS011;41090;48.632;12.428;2023-07-29T13:22:55;3.10;;;2.80;;
55222;SDS011;41090;48.632;12.428;2023-07-29T13:25:20;3.03;;;2.75;;
55222;SDS011;41090;48.632;12.428;2023-07-29T13:27:45;2.97;;;2.75;;
55222;SDS011;41090;48.632;12.428;2023-07-29T13:30:10;3.47;;;2.50;;
55222;SDS011;41090;48.632;12.428;2023-07-29T13:32:36;3.63;;;3.00;;
55222;SDS011;41090;48.632;12.428;2023-07-29T13:35:01;3.10;;;2.80;;
55222;SDS011;41090;48.632;12.428;2023-07-29T13:37:26;3.30;;;2.75;;
55222;SDS011;41090;48.632;12.428;2023-07-29T13:39:51;2.90;;;2.60;;
55222;SDS011;41090;48.632;12.428;2023-07-29T13:42:17;2.67;;;2.47;;
55222;SDS011;41090;48.632;12.428;2023-07-29T13:44:42;3.65;;;3.10;;
55222;SDS011;41090;48.632;12.428;2023-07-29T13:47:07;3.55;;;2.90;;
55222;SDS011;41090;48.632;12.428;2023-07-29T13:49:32;3.58;;;3.15;;
55222;SDS011;41090;48.632;12.428;2023-07-29T13:51:58;3.15;;;2.85;;
55222;SDS011;41090;48.632;12.428;2023-07-29T13:54:23;3.70;;;3.20;;
55222;SDS011;41090;48.632;12.428;2023-07-29T13:56:48;2.92;;;2.50;;
55222;SDS011;41090;48.632;12.428;2023-07-29T13:59:13;3.17;;;2.55;;
55222;SDS011;41090;48.632;12.428;2023-07-29T14:01:38;3.13;;;2.63;;
55222;SDS011;41090;48.632;12.428;2023-07-29T14:04:04;2.95;;;2.75;;
55222;SDS011;41090;48.632;12.428;2023-07-29T14:06:29;2.30;;;2.10;;
55222;SDS011;41090;48.632;12.428;2023-07-29T14:08:54;2.50;;;2.30;;
55222;SDS011;41090;48.632;12.428;2023-07-29T14:11:19;2.25;;;2.05;;
55222;SDS011;41090;48.632;12.428;2023-07-29T14:13:45;2.47;;;2.00;;
55222;SDS011;41090;48.632;12.428;2023-07-29T14:16:10;2.10;;;1.92;;
55222;SDS011;41090;48.632;12.428;2023-07-29T14:18:35;2.25;;;2.05;;
55222;SDS011;41090;48.632;12.428;2023-07-29T14:21:00;2.25;;;1.92;;
55222;SDS011;41090;48.632;12.428;2023-07-29T14:23:26;2.33;;;2.13;;
55222;SDS011;41090;48.632;12.428;2023-07-29T14:25:51;3.22;;;2.20;;
55222;SDS011;41090;48.632;12.428;2023-07-29T14:28:16;2.55;;;2.15;;
55222;SDS011;41090;48.632;12.428;2023-07-29T14:30:42;2.53;;;2.33;;
55222;SDS011;41090;48.632;12.428;2023-07-29T14:33:07;2.85;;;2.30;;
55222;SDS011;41090;48.632;12.428;2023-07-29T14:35:32;2.55;;;2.35;;
55222;SDS011;41090;48.632;12.428;2023-07-29T14:37:57;2.35;;;2.13;;
55222;SDS011;41090;48.632;12.428;2023-07-29T14:40:23;2.45;;;2.25;;